Tegucigalpa, Honduras
Current Conditions -  °F | °C
As of 6:00 AM on Friday 21 Nov 2014 (Local Time) from MHTG Reporting Station
Broken Clouds Broken Clouds  
Wind Chill: 66°   Ceiling: 2400
Heat Index: 66°   Visibility: 6mi
Dew Point: 64°   Wind: 7mph
Humidity: 94%   Direction: 340°NNW
Pressure: 30.09"   Gusts: NA
Location:  14.09°N, 87.22°W
Report Text: MHTG 211200Z 34006KT 9999 FEW010 BKN024 19/18 Q1019 A3009NOSIG
Loading
Personal Weather Stations






























Interactive Weather Map New forecast layout! Learn more

10-Day Weather Forecast

Advertisements
Track Severe Weather on mobile